sensor_id;sensor_type;location;lat;lon;timestamp;temperature;humidity
14006;DHT22;7078;51.542;7.314;2023-12-29T00:00:02;10.90;99.90
14006;DHT22;7078;51.542;7.314;2023-12-29T00:02:28;10.90;99.90
14006;DHT22;7078;51.542;7.314;2023-12-29T00:04:53;10.90;99.90
14006;DHT22;7078;51.542;7.314;2023-12-29T00:07:19;11.00;99.90
14006;DHT22;7078;51.542;7.314;2023-12-29T00:09:44;11.00;99.90
14006;DHT22;7078;51.542;7.314;2023-12-29T00:12:10;10.90;99.90
14006;DHT22;7078;51.542;7.314;2023-12-29T00:14:39;11.00;99.90
14006;DHT22;7078;51.542;7.314;2023-12-29T00:17:05;11.00;99.90
14006;DHT22;7078;51.542;7.314;2023-12-29T00:19:30;11.00;99.90
14006;DHT22;7078;51.542;7.314;2023-12-29T00:21:56;11.00;99.90
14006;DHT22;7078;51.542;7.314;2023-12-29T00:24:21;11.00;99.90
14006;DHT22;7078;51.542;7.314;2023-12-29T00:26:47;11.00;99.90
14006;DHT22;7078;51.542;7.314;2023-12-29T00:29:14;11.00;99.90
14006;DHT22;7078;51.542;7.314;2023-12-29T00:31:40;11.00;99.90
14006;DHT22;7078;51.542;7.314;2023-12-29T00:34:06;11.00;99.90
14006;DHT22;7078;51.542;7.314;2023-12-29T00:36:31;11.00;99.90
14006;DHT22;7078;51.542;7.314;2023-12-29T00:38:57;11.00;99.90
14006;DHT22;7078;51.542;7.314;2023-12-29T00:41:24;11.00;99.90
14006;DHT22;7078;51.542;7.314;2023-12-29T00:43:49;11.00;99.90
14006;DHT22;7078;51.542;7.314;2023-12-29T00:46:15;11.00;99.90
14006;DHT22;7078;51.542;7.314;2023-12-29T00:48:43;11.00;99.90
14006;DHT22;7078;51.542;7.314;2023-12-29T00:51:09;11.00;99.90
14006;DHT22;7078;51.542;7.314;2023-12-29T00:53:35;11.00;99.90
14006;DHT22;7078;51.542;7.314;2023-12-29T00:56:01;11.00;99.90
14006;DHT22;7078;51.542;7.314;2023-12-29T00:58:26;11.00;99.90
14006;DHT22;7078;51.542;7.314;2023-12-29T01:00:52;11.00;99.90
14006;DHT22;7078;51.542;7.314;2023-12-29T01:03:18;11.00;99.90
14006;DHT22;7078;51.542;7.314;2023-12-29T01:05:44;11.00;99.90
14006;DHT22;7078;51.542;7.314;2023-12-29T01:08:09;11.00;99.90
14006;DHT22;7078;51.542;7.314;2023-12-29T01:10:35;11.00;99.90
14006;DHT22;7078;51.542;7.314;2023-12-29T01:13:00;11.00;99.90
14006;DHT22;7078;51.542;7.314;2023-12-29T01:15:26;11.00;99.90
14006;DHT22;7078;51.542;7.314;2023-12-29T01:17:51;11.00;99.90
14006;DHT22;7078;51.542;7.314;2023-12-29T01:20:17;11.00;99.90
14006;DHT22;7078;51.542;7.314;2023-12-29T01:22:42;11.00;99.90
14006;DHT22;7078;51.542;7.314;2023-12-29T01:25:08;10.90;99.90
14006;DHT22;7078;51.542;7.314;2023-12-29T01:27:34;10.90;99.90
14006;DHT22;7078;51.542;7.314;2023-12-29T01:29:59;10.90;99.90
14006;DHT22;7078;51.542;7.314;2023-12-29T01:35:47;10.90;99.90
14006;DHT22;7078;51.542;7.314;2023-12-29T01:38:12;10.90;99.90
14006;DHT22;7078;51.542;7.314;2023-12-29T01:40:45;10.90;99.90
14006;DHT22;7078;51.542;7.314;2023-12-29T01:43:11;10.90;99.90
14006;DHT22;7078;51.542;7.314;2023-12-29T01:45:37;11.00;99.90
14006;DHT22;7078;51.542;7.314;2023-12-29T01:48:02;11.00;99.90
14006;DHT22;7078;51.542;7.314;2023-12-29T01:50:29;10.90;99.90
14006;DHT22;7078;51.542;7.314;2023-12-29T01:52:54;11.00;99.90
14006;DHT22;7078;51.542;7.314;2023-12-29T01:55:22;10.90;99.90
14006;DHT22;7078;51.542;7.314;2023-12-29T01:57:50;10.80;99.90
14006;DHT22;7078;51.542;7.314;2023-12-29T02:00:17;10.90;99.90
14006;DHT22;7078;51.542;7.314;2023-12-29T02:02:44;10.90;99.90
14006;DHT22;7078;51.542;7.314;2023-12-29T02:05:13;10.80;99.90
14006;DHT22;7078;51.542;7.314;2023-12-29T02:07:41;10.70;99.90
14006;DHT22;7078;51.542;7.314;2023-12-29T02:10:06;10.50;99.90
14006;DHT22;7078;51.542;7.314;2023-12-29T02:12:34;10.50;99.90
14006;DHT22;7078;51.542;7.314;2023-12-29T02:15:00;10.50;99.90
14006;DHT22;7078;51.542;7.314;2023-12-29T02:17:29;10.40;99.90
14006;DHT22;7078;51.542;7.314;2023-12-29T02:19:56;10.30;99.90
14006;DHT22;7078;51.542;7.314;2023-12-29T02:22:22;10.30;99.90
14006;DHT22;7078;51.542;7.314;2023-12-29T02:24:51;10.20;99.90
14006;DHT22;7078;51.542;7.314;2023-12-29T02:30:11;10.10;99.90
14006;DHT22;7078;51.542;7.314;2023-12-29T02:32:40;10.00;99.90
14006;DHT22;7078;51.542;7.314;2023-12-29T02:35:09;9.90;99.90
14006;DHT22;7078;51.542;7.314;2023-12-29T02:37:36;9.80;99.90
14006;DHT22;7078;51.542;7.314;2023-12-29T02:40:02;9.70;99.90
14006;DHT22;7078;51.542;7.314;2023-12-29T02:42:28;9.60;99.90
14006;DHT22;7078;51.542;7.314;2023-12-29T02:44:54;9.60;99.90
14006;DHT22;7078;51.542;7.314;2023-12-29T02:47:20;9.50;99.90
14006;DHT22;7078;51.542;7.314;2023-12-29T02:49:47;9.50;99.90
14006;DHT22;7078;51.542;7.314;2023-12-29T02:52:12;9.50;99.90
14006;DHT22;7078;51.542;7.314;2023-12-29T02:54:38;9.50;99.90
14006;DHT22;7078;51.542;7.314;2023-12-29T02:57:03;9.40;99.90
14006;DHT22;7078;51.542;7.314;2023-12-29T02:59:29;9.40;99.90
14006;DHT22;7078;51.542;7.314;2023-12-29T03:01:54;9.40;99.90
14006;DHT22;7078;51.542;7.314;2023-12-29T03:04:20;9.30;99.90
14006;DHT22;7078;51.542;7.314;2023-12-29T03:06:45;9.30;99.90
14006;DHT22;7078;51.542;7.314;2023-12-29T03:09:11;9.30;99.90
14006;DHT22;7078;51.542;7.314;2023-12-29T03:11:36;9.30;99.90
14006;DHT22;7078;51.542;7.314;2023-12-29T03:14:02;9.20;99.90
14006;DHT22;7078;51.542;7.314;2023-12-29T03:16:27;9.20;99.90
14006;DHT22;7078;51.542;7.314;2023-12-29T03:18:53;9.30;99.90
14006;DHT22;7078;51.542;7.314;2023-12-29T03:21:19;9.30;99.90
14006;DHT22;7078;51.542;7.314;2023-12-29T03:23:44;9.30;99.90
14006;DHT22;7078;51.542;7.314;2023-12-29T03:26:10;9.30;99.90
14006;DHT22;7078;51.542;7.314;2023-12-29T03:28:35;9.30;99.90
14006;DHT22;7078;51.542;7.314;2023-12-29T03:31:01;9.40;99.90
14006;DHT22;7078;51.542;7.314;2023-12-29T03:33:26;9.40;99.90
14006;DHT22;7078;51.542;7.314;2023-12-29T03:35:52;9.40;99.90
14006;DHT22;7078;51.542;7.314;2023-12-29T03:38:17;9.50;99.90
14006;DHT22;7078;51.542;7.314;2023-12-29T03:40:43;9.60;99.90
14006;DHT22;7078;51.542;7.314;2023-12-29T03:43:09;9.60;99.90
14006;DHT22;7078;51.542;7.314;2023-12-29T03:45:34;9.60;99.90
14006;DHT22;7078;51.542;7.314;2023-12-29T03:48:00;9.70;99.90
14006;DHT22;7078;51.542;7.314;2023-12-29T03:50:25;9.70;99.90
14006;DHT22;7078;51.542;7.314;2023-12-29T03:52:51;9.70;99.90
14006;DHT22;7078;51.542;7.314;2023-12-29T03:55:16;9.80;99.90
14006;DHT22;7078;51.542;7.314;2023-12-29T03:57:42;9.80;99.90
14006;DHT22;7078;51.542;7.314;2023-12-29T04:00:12;9.80;99.90
14006;DHT22;7078;51.542;7.314;2023-12-29T04:02:38;9.90;99.90
14006;DHT22;7078;51.542;7.314;2023-12-29T04:05:03;9.90;99.90
14006;DHT22;7078;51.542;7.314;2023-12-29T04:07:31;9.90;99.90
14006;DHT22;7078;51.542;7.314;2023-12-29T04:09:56;9.90;99.90
14006;DHT22;7078;51.542;7.314;2023-12-29T04:12:22;9.90;99.90
14006;DHT22;7078;51.542;7.314;2023-12-29T04:14:47;10.00;99.90
14006;DHT22;7078;51.542;7.314;2023-12-29T04:17:13;10.00;99.90
14006;DHT22;7078;51.542;7.314;2023-12-29T04:19:42;10.10;99.90
14006;DHT22;7078;51.542;7.314;2023-12-29T04:22:08;10.00;99.90
14006;DHT22;7078;51.542;7.314;2023-12-29T04:24:34;10.00;99.90
14006;DHT22;7078;51.542;7.314;2023-12-29T04:26:59;10.10;99.90
14006;DHT22;7078;51.542;7.314;2023-12-29T04:29:25;10.10;99.90
14006;DHT22;7078;51.542;7.314;2023-12-29T04:31:51;10.10;99.90
14006;DHT22;7078;51.542;7.314;2023-12-29T04:34:16;10.10;99.90
14006;DHT22;7078;51.542;7.314;2023-12-29T04:36:42;10.10;99.90
14006;DHT22;7078;51.542;7.314;2023-12-29T04:39:07;10.10;99.90
14006;DHT22;7078;51.542;7.314;2023-12-29T04:41:36;10.10;99.90
14006;DHT22;7078;51.542;7.314;2023-12-29T04:44:01;10.20;99.90
14006;DHT22;7078;51.542;7.314;2023-12-29T04:46:27;10.10;99.90
14006;DHT22;7078;51.542;7.314;2023-12-29T04:48:53;10.10;99.90
14006;DHT22;7078;51.542;7.314;2023-12-29T04:51:18;10.20;99.90
14006;DHT22;7078;51.542;7.314;2023-12-29T04:53:44;10.20;99.90
14006;DHT22;7078;51.542;7.314;2023-12-29T04:56:10;10.20;99.90
14006;DHT22;7078;51.542;7.314;2023-12-29T04:58:35;10.20;99.90
14006;DHT22;7078;51.542;7.314;2023-12-29T05:01:01;10.20;99.90
14006;DHT22;7078;51.542;7.314;2023-12-29T05:03:26;10.30;99.90
14006;DHT22;7078;51.542;7.314;2023-12-29T05:05:52;10.30;99.90
14006;DHT22;7078;51.542;7.314;2023-12-29T05:08:17;10.40;99.90
14006;DHT22;7078;51.542;7.314;2023-12-29T05:10:43;10.40;99.90
14006;DHT22;7078;51.542;7.314;2023-12-29T05:13:09;10.40;99.90
14006;DHT22;7078;51.542;7.314;2023-12-29T05:15:34;10.40;99.90
14006;DHT22;7078;51.542;7.314;2023-12-29T05:18:00;10.40;99.90
14006;DHT22;7078;51.542;7.314;2023-12-29T05:20:25;10.40;99.90
14006;DHT22;7078;51.542;7.314;2023-12-29T05:22:51;10.40;99.90
14006;DHT22;7078;51.542;7.314;2023-12-29T05:25:16;10.40;99.90
14006;DHT22;7078;51.542;7.314;2023-12-29T05:27:42;10.40;99.90
14006;DHT22;7078;51.542;7.314;2023-12-29T05:30:07;10.40;99.90
14006;DHT22;7078;51.542;7.314;2023-12-29T05:32:33;10.40;99.90
14006;DHT22;7078;51.542;7.314;2023-12-29T05:34:59;10.40;99.90
14006;DHT22;7078;51.542;7.314;2023-12-29T05:37:24;10.40;99.90
14006;DHT22;7078;51.542;7.314;2023-12-29T05:39:50;10.40;99.90
14006;DHT22;7078;51.542;7.314;2023-12-29T05:42:15;10.30;99.90
14006;DHT22;7078;51.542;7.314;2023-12-29T05:44:41;10.30;99.90
14006;DHT22;7078;51.542;7.314;2023-12-29T05:47:06;10.30;99.90
14006;DHT22;7078;51.542;7.314;2023-12-29T05:49:32;10.30;99.90
14006;DHT22;7078;51.542;7.314;2023-12-29T05:52:03;10.30;99.90
14006;DHT22;7078;51.542;7.314;2023-12-29T05:54:29;10.30;99.90
14006;DHT22;7078;51.542;7.314;2023-12-29T05:56:54;10.40;99.90
14006;DHT22;7078;51.542;7.314;2023-12-29T05:59:20;10.40;99.90
14006;DHT22;7078;51.542;7.314;2023-12-29T06:01:45;10.40;99.90
14006;DHT22;7078;51.542;7.314;2023-12-29T06:04:11;10.40;99.90
14006;DHT22;7078;51.542;7.314;2023-12-29T06:06:37;10.40;99.90
14006;DHT22;7078;51.542;7.314;2023-12-29T06:09:02;10.40;99.90
14006;DHT22;7078;51.542;7.314;2023-12-29T06:11:28;10.50;99.90
14006;DHT22;7078;51.542;7.314;2023-12-29T06:13:53;10.50;99.90
14006;DHT22;7078;51.542;7.314;2023-12-29T06:16:20;10.50;99.90
14006;DHT22;7078;51.542;7.314;2023-12-29T06:18:46;10.50;99.90
14006;DHT22;7078;51.542;7.314;2023-12-29T06:21:12;10.40;99.90
14006;DHT22;7078;51.542;7.314;2023-12-29T06:23:38;10.40;99.90
14006;DHT22;7078;51.542;7.314;2023-12-29T06:26:03;10.40;99.90
14006;DHT22;7078;51.542;7.314;2023-12-29T06:28:29;10.50;99.90
14006;DHT22;7078;51.542;7.314;2023-12-29T06:30:54;10.50;99.90
14006;DHT22;7078;51.542;7.314;2023-12-29T06:33:20;10.50;99.90
14006;DHT22;7078;51.542;7.314;2023-12-29T06:35:48;10.50;99.90
14006;DHT22;7078;51.542;7.314;2023-12-29T06:38:14;10.50;99.90
14006;DHT22;7078;51.542;7.314;2023-12-29T06:40:40;10.50;99.90
14006;DHT22;7078;51.542;7.314;2023-12-29T06:43:05;10.50;99.90
14006;DHT22;7078;51.542;7.314;2023-12-29T06:45:31;10.50;99.90
14006;DHT22;7078;51.542;7.314;2023-12-29T06:47:56;10.50;99.90
14006;DHT22;7078;51.542;7.314;2023-12-29T06:50:22;10.50;99.90
14006;DHT22;7078;51.542;7.314;2023-12-29T06:52:47;10.50;99.90
14006;DHT22;7078;51.542;7.314;2023-12-29T06:55:13;10.50;99.90
14006;DHT22;7078;51.542;7.314;2023-12-29T06:57:38;10.50;99.90
14006;DHT22;7078;51.542;7.314;2023-12-29T07:00:05;10.50;99.90
14006;DHT22;7078;51.542;7.314;2023-12-29T07:02:31;10.50;99.90
14006;DHT22;7078;51.542;7.314;2023-12-29T07:04:56;10.50;99.90
14006;DHT22;7078;51.542;7.314;2023-12-29T07:07:22;10.50;99.90
14006;DHT22;7078;51.542;7.314;2023-12-29T07:09:47;10.50;99.90
14006;DHT22;7078;51.542;7.314;2023-12-29T07:12:13;10.50;99.90
14006;DHT22;7078;51.542;7.314;2023-12-29T07:14:41;10.50;99.90
14006;DHT22;7078;51.542;7.314;2023-12-29T07:17:06;10.50;99.90
14006;DHT22;7078;51.542;7.314;2023-12-29T07:19:32;10.50;99.90
14006;DHT22;7078;51.542;7.314;2023-12-29T07:22:05;10.40;99.90
14006;DHT22;7078;51.542;7.314;2023-12-29T07:24:35;10.40;99.90
14006;DHT22;7078;51.542;7.314;2023-12-29T07:27:01;10.30;99.90
14006;DHT22;7078;51.542;7.314;2023-12-29T07:29:26;10.40;99.90
14006;DHT22;7078;51.542;7.314;2023-12-29T07:31:52;10.40;99.90
14006;DHT22;7078;51.542;7.314;2023-12-29T07:34:18;10.30;99.90
14006;DHT22;7078;51.542;7.314;2023-12-29T07:36:44;10.20;99.90
14006;DHT22;7078;51.542;7.314;2023-12-29T07:39:09;10.10;99.90
14006;DHT22;7078;51.542;7.314;2023-12-29T07:41:40;10.00;99.90
14006;DHT22;7078;51.542;7.314;2023-12-29T07:44:06;10.00;99.90
14006;DHT22;7078;51.542;7.314;2023-12-29T07:46:32;9.90;99.90
14006;DHT22;7078;51.542;7.314;2023-12-29T07:48:57;9.80;99.90
14006;DHT22;7078;51.542;7.314;2023-12-29T07:51:23;9.70;99.90
14006;DHT22;7078;51.542;7.314;2023-12-29T07:53:48;9.70;99.90
14006;DHT22;7078;51.542;7.314;2023-12-29T07:56:14;9.60;99.90
14006;DHT22;7078;51.542;7.314;2023-12-29T07:58:40;9.60;99.90
14006;DHT22;7078;51.542;7.314;2023-12-29T08:01:05;9.60;99.90
14006;DHT22;7078;51.542;7.314;2023-12-29T08:03:31;9.50;99.90
14006;DHT22;7078;51.542;7.314;2023-12-29T08:05:56;9.50;99.90
14006;DHT22;7078;51.542;7.314;2023-12-29T08:08:22;9.40;99.90
14006;DHT22;7078;51.542;7.314;2023-12-29T08:10:47;9.50;99.90
14006;DHT22;7078;51.542;7.314;2023-12-29T08:13:13;9.40;99.90
14006;DHT22;7078;51.542;7.314;2023-12-29T08:15:38;9.50;99.90
14006;DHT22;7078;51.542;7.314;2023-12-29T08:18:05;9.40;99.90
14006;DHT22;7078;51.542;7.314;2023-12-29T08:20:31;9.40;99.90
14006;DHT22;7078;51.542;7.314;2023-12-29T08:22:57;9.50;99.90
14006;DHT22;7078;51.542;7.314;2023-12-29T08:25:22;9.50;99.90
14006;DHT22;7078;51.542;7.314;2023-12-29T08:27:48;9.50;99.90
14006;DHT22;7078;51.542;7.314;2023-12-29T08:30:14;9.60;99.90
14006;DHT22;7078;51.542;7.314;2023-12-29T08:32:39;9.50;99.90
14006;DHT22;7078;51.542;7.314;2023-12-29T08:35:05;9.50;99.90
14006;DHT22;7078;51.542;7.314;2023-12-29T08:37:31;9.60;99.90
14006;DHT22;7078;51.542;7.314;2023-12-29T08:39:59;9.60;99.90
14006;DHT22;7078;51.542;7.314;2023-12-29T08:42:24;9.60;99.90
14006;DHT22;7078;51.542;7.314;2023-12-29T08:44:50;9.60;99.90
14006;DHT22;7078;51.542;7.314;2023-12-29T08:47:15;9.70;99.90
14006;DHT22;7078;51.542;7.314;2023-12-29T08:49:41;9.70;99.90
14006;DHT22;7078;51.542;7.314;2023-12-29T08:52:07;9.70;99.90
14006;DHT22;7078;51.542;7.314;2023-12-29T08:54:34;9.70;99.90
14006;DHT22;7078;51.542;7.314;2023-12-29T08:56:59;9.70;99.90
14006;DHT22;7078;51.542;7.314;2023-12-29T08:59:25;9.70;99.90
14006;DHT22;7078;51.542;7.314;2023-12-29T09:01:51;9.70;99.90
14006;DHT22;7078;51.542;7.314;2023-12-29T09:04:16;9.80;99.90
14006;DHT22;7078;51.542;7.314;2023-12-29T09:06:42;9.80;99.90
14006;DHT22;7078;51.542;7.314;2023-12-29T09:09:07;9.80;99.90
14006;DHT22;7078;51.542;7.314;2023-12-29T09:11:38;9.90;99.90
14006;DHT22;7078;51.542;7.314;2023-12-29T09:14:04;9.90;99.90
14006;DHT22;7078;51.542;7.314;2023-12-29T09:16:30;9.90;99.90
14006;DHT22;7078;51.542;7.314;2023-12-29T09:18:55;10.00;99.90
14006;DHT22;7078;51.542;7.314;2023-12-29T09:21:21;10.00;99.90
14006;DHT22;7078;51.542;7.314;2023-12-29T09:23:46;10.00;99.90
14006;DHT22;7078;51.542;7.314;2023-12-29T09:26:12;10.10;99.90
14006;DHT22;7078;51.542;7.314;2023-12-29T09:28:41;10.00;99.90
14006;DHT22;7078;51.542;7.314;2023-12-29T09:31:07;10.10;99.90
14006;DHT22;7078;51.542;7.314;2023-12-29T09:33:33;10.10;99.90
14006;DHT22;7078;51.542;7.314;2023-12-29T09:35:58;10.10;99.90
14006;DHT22;7078;51.542;7.314;2023-12-29T09:38:24;10.10;99.90
14006;DHT22;7078;51.542;7.314;2023-12-29T09:40:51;10.00;99.90
14006;DHT22;7078;51.542;7.314;2023-12-29T09:43:18;10.00;99.90
14006;DHT22;7078;51.542;7.314;2023-12-29T09:45:45;10.00;99.90
14006;DHT22;7078;51.542;7.314;2023-12-29T09:48:13;10.10;99.90
14006;DHT22;7078;51.542;7.314;2023-12-29T09:50:42;10.10;99.90
14006;DHT22;7078;51.542;7.314;2023-12-29T09:53:10;10.10;99.90
14006;DHT22;7078;51.542;7.314;2023-12-29T09:55:38;10.10;99.90
14006;DHT22;7078;51.542;7.314;2023-12-29T09:58:05;10.10;99.90
14006;DHT22;7078;51.542;7.314;2023-12-29T10:00:33;10.10;99.90
14006;DHT22;7078;51.542;7.314;2023-12-29T10:03:00;10.10;99.90
14006;DHT22;7078;51.542;7.314;2023-12-29T10:05:26;10.10;99.90
14006;DHT22;7078;51.542;7.314;2023-12-29T10:07:52;10.20;99.90
14006;DHT22;7078;51.542;7.314;2023-12-29T10:10:20;10.10;99.90
14006;DHT22;7078;51.542;7.314;2023-12-29T10:12:48;10.10;99.90
14006;DHT22;7078;51.542;7.314;2023-12-29T10:15:24;10.10;99.90
14006;DHT22;7078;51.542;7.314;2023-12-29T10:20:49;10.10;99.90
14006;DHT22;7078;51.542;7.314;2023-12-29T10:23:41;10.10;99.90
14006;DHT22;7078;51.542;7.314;2023-12-29T10:26:11;10.10;99.90
14006;DHT22;7078;51.542;7.314;2023-12-29T10:28:37;10.10;99.90
14006;DHT22;7078;51.542;7.314;2023-12-29T10:31:04;10.00;99.90
14006;DHT22;7078;51.542;7.314;2023-12-29T10:33:29;10.00;99.90
14006;DHT22;7078;51.542;7.314;2023-12-29T10:35:58;10.00;99.90
14006;DHT22;7078;51.542;7.314;2023-12-29T10:38:33;10.00;99.90
14006;DHT22;7078;51.542;7.314;2023-12-29T10:41:14;10.00;99.90
14006;DHT22;7078;51.542;7.314;2023-12-29T10:43:41;10.00;99.90
14006;DHT22;7078;51.542;7.314;2023-12-29T10:46:09;10.00;99.90
14006;DHT22;7078;51.542;7.314;2023-12-29T10:48:35;10.00;99.90
14006;DHT22;7078;51.542;7.314;2023-12-29T10:51:02;10.10;99.90
14006;DHT22;7078;51.542;7.314;2023-12-29T10:53:36;10.10;99.90
14006;DHT22;7078;51.542;7.314;2023-12-29T10:56:01;10.10;99.90
14006;DHT22;7078;51.542;7.314;2023-12-29T10:58:28;10.10;99.90
14006;DHT22;7078;51.542;7.314;2023-12-29T11:00:58;10.20;99.90
14006;DHT22;7078;51.542;7.314;2023-12-29T11:03:24;10.20;99.90
14006;DHT22;7078;51.542;7.314;2023-12-29T11:05:51;10.20;99.90
14006;DHT22;7078;51.542;7.314;2023-12-29T11:08:18;10.30;99.90
14006;DHT22;7078;51.542;7.314;2023-12-29T11:10:44;10.30;99.90
14006;DHT22;7078;51.542;7.314;2023-12-29T11:13:13;10.40;99.90
14006;DHT22;7078;51.542;7.314;2023-12-29T11:15:43;10.50;99.90
14006;DHT22;7078;51.542;7.314;2023-12-29T11:18:13;10.50;99.90
14006;DHT22;7078;51.542;7.314;2023-12-29T11:20:39;10.50;99.90
14006;DHT22;7078;51.542;7.314;2023-12-29T11:23:06;10.60;99.90
14006;DHT22;7078;51.542;7.314;2023-12-29T11:25:32;10.50;99.90
14006;DHT22;7078;51.542;7.314;2023-12-29T11:27:59;10.60;99.90
14006;DHT22;7078;51.542;7.314;2023-12-29T11:30:25;10.60;99.90
14006;DHT22;7078;51.542;7.314;2023-12-29T11:33:14;10.70;99.90
14006;DHT22;7078;51.542;7.314;2023-12-29T11:39:24;10.70;99.90
14006;DHT22;7078;51.542;7.314;2023-12-29T11:42:13;10.80;99.90
14006;DHT22;7078;51.542;7.314;2023-12-29T11:44:39;10.80;99.90
14006;DHT22;7078;51.542;7.314;2023-12-29T11:47:05;10.90;99.90
14006;DHT22;7078;51.542;7.314;2023-12-29T11:50:00;10.90;99.90
14006;DHT22;7078;51.542;7.314;2023-12-29T11:52:36;10.90;99.90
14006;DHT22;7078;51.542;7.314;2023-12-29T11:55:15;10.80;99.90
14006;DHT22;7078;51.542;7.314;2023-12-29T11:57:43;10.90;99.90
14006;DHT22;7078;51.542;7.314;2023-12-29T12:00:10;10.80;99.90
14006;DHT22;7078;51.542;7.314;2023-12-29T12:02:36;10.90;99.90
14006;DHT22;7078;51.542;7.314;2023-12-29T12:05:02;10.90;99.90
14006;DHT22;7078;51.542;7.314;2023-12-29T12:12:44;11.00;99.90
14006;DHT22;7078;51.542;7.314;2023-12-29T12:18:01;11.00;99.90
14006;DHT22;7078;51.542;7.314;2023-12-29T12:20:29;11.10;99.90
14006;DHT22;7078;51.542;7.314;2023-12-29T12:23:00;11.10;99.90
14006;DHT22;7078;51.542;7.314;2023-12-29T12:25:27;11.10;99.90
14006;DHT22;7078;51.542;7.314;2023-12-29T12:27:58;11.10;99.90
14006;DHT22;7078;51.542;7.314;2023-12-29T12:30:24;11.00;99.90
14006;DHT22;7078;51.542;7.314;2023-12-29T12:33:00;11.00;99.90
14006;DHT22;7078;51.542;7.314;2023-12-29T12:35:26;11.00;99.90
14006;DHT22;7078;51.542;7.314;2023-12-29T12:38:07;11.00;99.90
14006;DHT22;7078;51.542;7.314;2023-12-29T12:40:33;11.00;99.90
14006;DHT22;7078;51.542;7.314;2023-12-29T12:42:59;11.00;99.90
14006;DHT22;7078;51.542;7.314;2023-12-29T12:45:26;10.90;99.90
14006;DHT22;7078;51.542;7.314;2023-12-29T12:48:00;10.90;99.90
14006;DHT22;7078;51.542;7.314;2023-12-29T12:50:26;10.80;99.90
14006;DHT22;7078;51.542;7.314;2023-12-29T12:52:52;10.80;99.90
14006;DHT22;7078;51.542;7.314;2023-12-29T12:55:18;10.80;99.90
14006;DHT22;7078;51.542;7.314;2023-12-29T12:57:44;10.90;99.90
14006;DHT22;7078;51.542;7.314;2023-12-29T13:00:10;10.90;99.90
14006;DHT22;7078;51.542;7.314;2023-12-29T13:02:36;11.00;99.90
14006;DHT22;7078;51.542;7.314;2023-12-29T13:05:02;10.90;99.90
14006;DHT22;7078;51.542;7.314;2023-12-29T13:07:33;10.90;99.90
14006;DHT22;7078;51.542;7.314;2023-12-29T13:09:59;10.90;99.90
14006;DHT22;7078;51.542;7.314;2023-12-29T13:12:26;10.80;99.90
14006;DHT22;7078;51.542;7.314;2023-12-29T13:14:51;10.70;99.90
14006;DHT22;7078;51.542;7.314;2023-12-29T13:17:17;10.60;99.90
14006;DHT22;7078;51.542;7.314;2023-12-29T13:19:43;10.50;99.90
14006;DHT22;7078;51.542;7.314;2023-12-29T13:22:12;10.40;99.90
14006;DHT22;7078;51.542;7.314;2023-12-29T13:24:44;10.30;99.90
14006;DHT22;7078;51.542;7.314;2023-12-29T13:27:11;10.20;99.90
14006;DHT22;7078;51.542;7.314;2023-12-29T13:29:37;10.20;99.90
14006;DHT22;7078;51.542;7.314;2023-12-29T13:32:15;10.20;99.90
14006;DHT22;7078;51.542;7.314;2023-12-29T13:35:16;10.30;99.90
14006;DHT22;7078;51.542;7.314;2023-12-29T13:37:47;10.30;99.90
14006;DHT22;7078;51.542;7.314;2023-12-29T13:40:19;10.20;99.90
14006;DHT22;7078;51.542;7.314;2023-12-29T13:42:49;10.20;99.90
14006;DHT22;7078;51.542;7.314;2023-12-29T13:45:16;10.20;99.90
14006;DHT22;7078;51.542;7.314;2023-12-29T13:47:43;10.20;99.90
14006;DHT22;7078;51.542;7.314;2023-12-29T13:50:10;10.20;99.90
14006;DHT22;7078;51.542;7.314;2023-12-29T13:52:39;10.20;99.90
14006;DHT22;7078;51.542;7.314;2023-12-29T13:55:05;10.20;99.90
14006;DHT22;7078;51.542;7.314;2023-12-29T13:57:35;10.10;99.90
14006;DHT22;7078;51.542;7.314;2023-12-29T14:00:16;10.10;99.90
14006;DHT22;7078;51.542;7.314;2023-12-29T14:02:44;10.10;99.90
14006;DHT22;7078;51.542;7.314;2023-12-29T14:05:18;10.10;99.90
14006;DHT22;7078;51.542;7.314;2023-12-29T14:07:59;10.20;99.90
14006;DHT22;7078;51.542;7.314;2023-12-29T14:10:32;10.20;99.90
14006;DHT22;7078;51.542;7.314;2023-12-29T14:15:36;10.20;99.90
14006;DHT22;7078;51.542;7.314;2023-12-29T14:18:10;10.20;99.90
14006;DHT22;7078;51.542;7.314;2023-12-29T14:20:40;10.30;99.90
14006;DHT22;7078;51.542;7.314;2023-12-29T14:23:06;10.30;99.90
14006;DHT22;7078;51.542;7.314;2023-12-29T14:25:36;10.30;99.90
14006;DHT22;7078;51.542;7.314;2023-12-29T14:28:14;10.30;99.90
14006;DHT22;7078;51.542;7.314;2023-12-29T14:30:40;10.40;99.90
14006;DHT22;7078;51.542;7.314;2023-12-29T14:33:06;10.40;99.90
14006;DHT22;7078;51.542;7.314;2023-12-29T14:35:33;10.40;99.90
14006;DHT22;7078;51.542;7.314;2023-12-29T14:37:58;10.40;99.90
14006;DHT22;7078;51.542;7.314;2023-12-29T14:40:24;10.50;99.90
14006;DHT22;7078;51.542;7.314;2023-12-29T14:42:49;10.50;99.90
14006;DHT22;7078;51.542;7.314;2023-12-29T14:45:15;10.50;99.90
14006;DHT22;7078;51.542;7.314;2023-12-29T14:47:40;10.50;99.90
14006;DHT22;7078;51.542;7.314;2023-12-29T14:50:06;10.50;99.90
14006;DHT22;7078;51.542;7.314;2023-12-29T14:52:32;10.50;99.90
14006;DHT22;7078;51.542;7.314;2023-12-29T14:54:57;10.50;99.90
14006;DHT22;7078;51.542;7.314;2023-12-29T14:57:23;10.50;99.90
14006;DHT22;7078;51.542;7.314;2023-12-29T14:59:49;10.50;99.90
14006;DHT22;7078;51.542;7.314;2023-12-29T15:02:14;10.50;99.90
14006;DHT22;7078;51.542;7.314;2023-12-29T15:04:40;10.60;99.90
14006;DHT22;7078;51.542;7.314;2023-12-29T15:07:06;10.50;99.90
14006;DHT22;7078;51.542;7.314;2023-12-29T15:09:31;10.50;99.90
14006;DHT22;7078;51.542;7.314;2023-12-29T15:15:27;10.50;99.90
14006;DHT22;7078;51.542;7.314;2023-12-29T15:17:52;10.50;99.90
14006;DHT22;7078;51.542;7.314;2023-12-29T15:20:18;10.50;99.90
14006;DHT22;7078;51.542;7.314;2023-12-29T15:22:43;10.50;99.90
14006;DHT22;7078;51.542;7.314;2023-12-29T15:25:09;10.50;99.90
14006;DHT22;7078;51.542;7.314;2023-12-29T15:27:35;10.60;99.90
14006;DHT22;7078;51.542;7.314;2023-12-29T15:30:01;10.50;99.90
14006;DHT22;7078;51.542;7.314;2023-12-29T15:32:26;10.50;99.90
14006;DHT22;7078;51.542;7.314;2023-12-29T15:34:52;10.50;99.90
14006;DHT22;7078;51.542;7.314;2023-12-29T15:37:17;10.40;99.90
14006;DHT22;7078;51.542;7.314;2023-12-29T15:39:44;10.40;99.90
14006;DHT22;7078;51.542;7.314;2023-12-29T15:42:10;10.40;99.90
14006;DHT22;7078;51.542;7.314;2023-12-29T15:44:36;10.20;99.90
14006;DHT22;7078;51.542;7.314;2023-12-29T15:47:01;10.20;99.90
14006;DHT22;7078;51.542;7.314;2023-12-29T15:49:27;10.20;99.90
14006;DHT22;7078;51.542;7.314;2023-12-29T15:51:52;10.10;99.90
14006;DHT22;7078;51.542;7.314;2023-12-29T15:54:18;10.10;99.90
14006;DHT22;7078;51.542;7.314;2023-12-29T15:56:43;10.00;99.90
14006;DHT22;7078;51.542;7.314;2023-12-29T15:59:09;10.00;99.90
14006;DHT22;7078;51.542;7.314;2023-12-29T16:01:34;10.00;99.90
14006;DHT22;7078;51.542;7.314;2023-12-29T16:04:00;10.00;99.90
14006;DHT22;7078;51.542;7.314;2023-12-29T16:06:27;10.00;99.90
14006;DHT22;7078;51.542;7.314;2023-12-29T16:08:53;9.90;99.90
14006;DHT22;7078;51.542;7.314;2023-12-29T16:11:23;9.90;99.90
14006;DHT22;7078;51.542;7.314;2023-12-29T16:13:49;9.90;99.90